Time;durP1;ratioP1;P1;durP2;ratioP2;P2;SDS_P1;SDS_P2;PMS_P1;PMS_P2;Temp;Humidity;BMP_temperature;BMP_pressure;BME280_temperature;BME280_humidity;BME280_pressure;Samples;Min_cycle;Max_cycle;Signal;HPM_P1;HPM_P2
2024/02/24 00:01:04;;;;;;;8.97;5.90;;;0.90;99.90;;;;;;5006459;28;20450;-59
2024/02/24 00:03:30;;;;;;;22.17;6.13;;;0.90;99.90;;;;;;5018057;28;20776;-59
2024/02/24 00:05:55;;;;;;;13.20;5.70;;;0.90;99.90;;;;;;5017154;28;20661;-59
2024/02/24 00:08:21;;;;;;;10.93;6.07;;;0.80;99.90;;;;;;5014771;28;20212;-58
2024/02/24 00:10:47;;;;;;;8.17;5.87;;;0.80;99.90;;;;;;5002027;28;20206;-59
2024/02/24 00:13:12;;;;;;;10.07;6.13;;;0.80;99.90;;;;;;5016865;28;20188;-60
2024/02/24 00:15:38;;;;;;;9.70;4.87;;;0.80;99.90;;;;;;5007827;28;20446;-59
2024/02/24 00:18:04;;;;;;;8.00;5.30;;;0.80;99.90;;;;;;5010263;28;20183;-59
2024/02/24 00:20:30;;;;;;;8.03;5.43;;;0.80;99.90;;;;;;5017923;28;20278;-59
2024/02/24 00:22:55;;;;;;;13.30;5.97;;;0.70;99.90;;;;;;5018554;28;20469;-59
2024/02/24 00:25:21;;;;;;;9.87;4.83;;;0.70;99.90;;;;;;5017173;28;20200;-59
2024/02/24 00:27:46;;;;;;;7.70;4.90;;;0.70;99.90;;;;;;5009428;28;20215;-59
2024/02/24 00:30:13;;;;;;;11.30;6.30;;;0.70;99.90;;;;;;5011951;28;20195;-59
2024/02/24 00:32:38;;;;;;;9.03;6.27;;;0.70;99.90;;;;;;5014713;28;20215;-59
2024/02/24 00:35:06;;;;;;;11.50;6.07;;;0.70;99.90;;;;;;5014451;28;20454;-59
2024/02/24 00:37:31;;;;;;;9.83;6.07;;;0.70;99.90;;;;;;5012465;28;20230;-59
2024/02/24 00:39:57;;;;;;;8.90;5.83;;;0.60;99.90;;;;;;5015729;28;20964;-58
2024/02/24 00:42:22;;;;;;;18.17;8.13;;;0.60;99.90;;;;;;5015247;28;20260;-58
2024/02/24 00:44:48;;;;;;;14.17;6.50;;;0.60;99.90;;;;;;5015391;28;20212;-59
2024/02/24 00:47:13;;;;;;;10.87;6.07;;;0.60;99.90;;;;;;5010745;28;20566;-59
2024/02/24 00:49:39;;;;;;;9.50;5.73;;;0.60;99.90;;;;;;5015910;28;20174;-59
2024/02/24 00:52:05;;;;;;;17.67;5.67;;;0.60;99.90;;;;;;5013053;28;20187;-59
2024/02/24 00:54:31;;;;;;;9.43;6.63;;;0.60;99.90;;;;;;5011647;28;20457;-59
2024/02/24 00:56:56;;;;;;;12.00;6.33;;;0.60;99.90;;;;;;5004483;28;20187;-59
2024/02/24 00:59:23;;;;;;;11.03;5.43;;;0.60;99.90;;;;;;5016781;28;20192;-59
2024/02/24 01:01:49;;;;;;;16.23;6.13;;;0.60;99.90;;;;;;5017278;28;20365;-59
2024/02/24 01:04:15;;;;;;;10.20;5.80;;;0.60;99.90;;;;;;5013035;28;21004;-60
2024/02/24 01:06:41;;;;;;;9.73;6.03;;;0.60;99.90;;;;;;5017522;28;20199;-59
2024/02/24 01:09:06;;;;;;;13.00;6.30;;;0.60;99.90;;;;;;5010313;28;20516;-59
2024/02/24 01:11:32;;;;;;;12.30;7.03;;;0.60;99.90;;;;;;5016711;28;20274;-60
2024/02/24 01:13:58;;;;;;;12.30;6.77;;;0.60;99.90;;;;;;5017971;28;20259;-59
2024/02/24 01:16:24;;;;;;;23.63;7.27;;;0.50;99.90;;;;;;5019528;28;20244;-59
2024/02/24 01:18:50;;;;;;;13.67;7.23;;;0.50;99.90;;;;;;5010365;28;20434;-58
2024/02/24 01:21:15;;;;;;;9.77;5.97;;;0.50;99.90;;;;;;5012715;28;20240;-59
2024/02/24 01:23:41;;;;;;;13.80;6.53;;;0.50;99.90;;;;;;5020623;28;20186;-59
2024/02/24 01:26:06;;;;;;;10.30;6.70;;;0.40;99.90;;;;;;5014959;28;20178;-59
2024/02/24 01:28:34;;;;;;;16.60;7.40;;;0.50;99.90;;;;;;5015903;28;20798;-58
2024/02/24 01:30:59;;;;;;;11.03;7.47;;;0.50;99.90;;;;;;5011554;28;20206;-59
2024/02/24 01:33:25;;;;;;;15.03;7.80;;;0.50;99.90;;;;;;5014936;28;20432;-59
2024/02/24 01:35:51;;;;;;;14.40;7.50;;;0.50;99.90;;;;;;5015552;28;20647;-58
2024/02/24 01:38:16;;;;;;;11.83;6.50;;;0.50;99.90;;;;;;5017177;28;20175;-59
2024/02/24 01:40:42;;;;;;;16.20;6.90;;;0.50;99.90;;;;;;5012673;28;20196;-59
2024/02/24 01:43:28;;;;;;;9.13;5.70;;;0.50;99.90;;;;;;5008948;28;20611;-60
2024/02/24 01:45:55;;;;;;;12.93;6.40;;;0.50;99.90;;;;;;5018109;28;20183;-59
2024/02/24 01:48:21;;;;;;;13.20;6.27;;;0.50;99.90;;;;;;5012577;28;20434;-59
2024/02/24 01:50:48;;;;;;;8.87;5.27;;;0.50;99.90;;;;;;5004075;28;20958;-59
2024/02/24 01:53:16;;;;;;;13.13;5.07;;;0.50;99.90;;;;;;5013798;28;20596;-59
2024/02/24 01:55:43;;;;;;;8.50;5.40;;;0.50;99.90;;;;;;5015425;28;20415;-58
2024/02/24 01:58:11;;;;;;;7.77;4.90;;;0.50;99.90;;;;;;5016380;28;20439;-59
2024/02/24 02:00:36;;;;;;;7.50;5.10;;;0.50;99.90;;;;;;5012933;28;20447;-59
2024/02/24 02:03:02;;;;;;;6.63;4.83;;;0.60;99.90;;;;;;5014875;28;20419;-59
2024/02/24 02:05:28;;;;;;;6.97;5.00;;;0.60;99.90;;;;;;5018159;28;20277;-59
2024/02/24 02:07:54;;;;;;;12.30;4.90;;;0.50;99.90;;;;;;5009871;28;20462;-59
2024/02/24 02:10:20;;;;;;;10.60;4.50;;;0.50;99.90;;;;;;5014648;28;20454;-59
2024/02/24 02:12:46;;;;;;;10.70;5.47;;;0.50;99.90;;;;;;5009950;28;20432;-59
2024/02/24 02:15:12;;;;;;;8.10;4.77;;;0.50;99.90;;;;;;5012169;28;20183;-58
2024/02/24 02:17:38;;;;;;;8.30;5.13;;;0.50;99.90;;;;;;5012500;28;20417;-59
2024/02/24 02:20:04;;;;;;;7.50;4.90;;;0.50;99.90;;;;;;5018248;28;20203;-59
2024/02/24 02:22:33;;;;;;;9.33;5.10;;;0.50;99.90;;;;;;5012864;28;20432;-59
2024/02/24 02:24:59;;;;;;;14.83;5.30;;;0.50;99.90;;;;;;5011699;28;20922;-59
2024/02/24 02:27:24;;;;;;;7.83;5.10;;;0.50;99.90;;;;;;5007764;28;20465;-59
2024/02/24 02:29:50;;;;;;;12.80;5.37;;;0.50;99.90;;;;;;5015786;28;20174;-59
2024/02/24 02:32:15;;;;;;;8.07;5.20;;;0.50;99.90;;;;;;5017113;28;20182;-59
2024/02/24 02:34:41;;;;;;;8.80;4.77;;;0.50;99.90;;;;;;5012436;28;20188;-59
2024/02/24 02:37:07;;;;;;;7.27;4.70;;;0.50;99.90;;;;;;5014669;28;20651;-59
2024/02/24 02:39:33;;;;;;;8.10;6.07;;;0.50;99.90;;;;;;5012932;28;20731;-58
2024/02/24 02:41:59;;;;;;;17.43;7.63;;;0.50;99.90;;;;;;5013486;28;20202;-58
2024/02/24 02:44:25;;;;;;;16.53;8.10;;;0.50;99.90;;;;;;5010985;28;20435;-59
2024/02/24 02:46:50;;;;;;;15.07;8.13;;;0.50;99.90;;;;;;5017804;28;20352;-59
2024/02/24 02:49:17;;;;;;;14.03;6.83;;;0.50;99.90;;;;;;5010871;28;20191;-58
2024/02/24 02:51:43;;;;;;;14.17;6.27;;;0.50;99.90;;;;;;5008112;28;20192;-58
2024/02/24 02:54:09;;;;;;;12.87;6.67;;;0.50;99.90;;;;;;5021965;28;20521;-59
2024/02/24 02:56:35;;;;;;;10.17;5.97;;;0.50;99.90;;;;;;5008732;28;20481;-59
2024/02/24 02:59:00;;;;;;;9.30;5.80;;;0.50;99.90;;;;;;5010641;28;20182;-58
2024/02/24 03:01:26;;;;;;;12.43;5.23;;;0.50;99.90;;;;;;5009845;28;20199;-59
2024/02/24 03:03:51;;;;;;;8.53;5.17;;;0.40;99.90;;;;;;5013334;28;20528;-59
2024/02/24 03:06:18;;;;;;;8.30;5.23;;;0.40;99.90;;;;;;5005940;28;20669;-59
2024/02/24 03:08:44;;;;;;;8.60;5.33;;;0.40;99.90;;;;;;5009926;28;20175;-59
2024/02/24 03:11:17;;;;;;;7.50;5.10;;;0.40;99.90;;;;;;5006930;28;20839;-59
2024/02/24 03:13:43;;;;;;;6.87;4.60;;;0.40;99.90;;;;;;5003222;28;20175;-58
2024/02/24 03:16:08;;;;;;;13.30;5.63;;;0.40;99.90;;;;;;5009584;28;20492;-60
2024/02/24 03:18:34;;;;;;;9.47;5.50;;;0.40;99.90;;;;;;5007238;28;20489;-59
2024/02/24 03:20:59;;;;;;;9.27;4.50;;;0.30;99.90;;;;;;5009456;28;20821;-59
2024/02/24 03:23:25;;;;;;;7.13;4.17;;;0.40;99.90;;;;;;5017223;28;20185;-59
2024/02/24 03:25:50;;;;;;;11.80;5.70;;;0.30;99.90;;;;;;5012355;28;20170;-59
2024/02/24 03:28:16;;;;;;;11.17;4.70;;;0.40;99.90;;;;;;5012199;28;20235;-60
2024/02/24 03:30:43;;;;;;;10.30;5.33;;;0.40;99.90;;;;;;5013382;28;20199;-59
2024/02/24 03:33:08;;;;;;;11.67;5.37;;;0.40;99.90;;;;;;5017976;28;20411;-60
2024/02/24 03:35:34;;;;;;;10.57;4.60;;;0.40;99.90;;;;;;5013164;28;20511;-60
2024/02/24 03:38:00;;;;;;;10.00;5.60;;;0.40;99.90;;;;;;5015061;28;20173;-59
2024/02/24 03:40:25;;;;;;;9.30;5.10;;;0.40;99.90;;;;;;5007905;28;20203;-59
2024/02/24 03:42:51;;;;;;;7.83;4.73;;;0.40;99.90;;;;;;5015132;28;20266;-59
2024/02/24 03:45:16;;;;;;;10.90;5.37;;;0.50;99.90;;;;;;5014835;28;20183;-58
2024/02/24 03:47:42;;;;;;;10.73;5.97;;;0.50;99.90;;;;;;5013487;28;20272;-58
2024/02/24 03:50:08;;;;;;;10.60;6.70;;;0.50;99.90;;;;;;5010177;28;20218;-59
2024/02/24 03:52:34;;;;;;;8.17;4.87;;;0.50;99.90;;;;;;5006165;28;20217;-59
2024/02/24 03:54:59;;;;;;;12.20;5.83;;;0.50;99.90;;;;;;5014674;28;20402;-58
2024/02/24 03:57:26;;;;;;;7.57;5.27;;;0.50;99.90;;;;;;5015092;28;20268;-60
2024/02/24 03:59:52;;;;;;;7.93;5.03;;;0.50;99.90;;;;;;5003143;28;20562;-59
2024/02/24 04:02:18;;;;;;;8.73;5.33;;;0.50;99.90;;;;;;5012054;28;20449;-59
2024/02/24 04:04:43;;;;;;;13.70;4.90;;;0.50;99.90;;;;;;5019912;28;20171;-59
2024/02/24 04:07:09;;;;;;;12.47;5.23;;;0.50;99.90;;;;;;5013927;28;20729;-58
2024/02/24 04:09:34;;;;;;;10.00;5.43;;;0.50;99.90;;;;;;5011641;28;20232;-58
2024/02/24 04:12:00;;;;;;;10.70;5.20;;;0.50;99.90;;;;;;5006313;28;20195;-59
2024/02/24 04:14:26;;;;;;;6.87;4.70;;;0.50;99.90;;;;;;5006209;28;20195;-59
2024/02/24 04:16:51;;;;;;;12.00;5.30;;;0.50;99.90;;;;;;5012695;28;20189;-59
2024/02/24 04:19:17;;;;;;;6.43;4.90;;;0.50;99.90;;;;;;5014943;28;20172;-59
2024/02/24 04:21:42;;;;;;;10.83;6.17;;;0.50;99.90;;;;;;5011020;28;20302;-58
2024/02/24 04:24:08;;;;;;;7.93;4.93;;;0.50;99.90;;;;;;5007188;28;20249;-57
2024/02/24 04:26:33;;;;;;;10.00;5.20;;;0.50;99.90;;;;;;5007962;28;20632;-59
2024/02/24 04:28:59;;;;;;;9.00;5.07;;;0.60;99.90;;;;;;5009116;28;20170;-59
2024/02/24 04:31:26;;;;;;;7.70;5.17;;;0.60;99.90;;;;;;5016264;28;20201;-59
2024/02/24 04:33:52;;;;;;;11.50;5.90;;;0.60;99.90;;;;;;5011162;28;20649;-59
2024/02/24 04:36:18;;;;;;;7.17;4.90;;;0.60;99.90;;;;;;5012714;28;20422;-59
2024/02/24 04:38:43;;;;;;;11.23;5.50;;;0.60;99.90;;;;;;5006487;28;20754;-59
2024/02/24 04:41:09;;;;;;;8.53;4.30;;;0.70;99.90;;;;;;5012740;28;20204;-58
2024/02/24 04:43:34;;;;;;;11.70;4.90;;;0.70;99.90;;;;;;5006401;28;20215;-59
2024/02/24 04:46:00;;;;;;;9.73;4.67;;;0.70;99.90;;;;;;5014337;28;20194;-59
2024/02/24 04:48:26;;;;;;;9.27;4.60;;;0.70;99.90;;;;;;5009709;28;20187;-59
2024/02/24 04:50:51;;;;;;;7.83;4.50;;;0.70;99.90;;;;;;5008045;28;20206;-58
2024/02/24 04:53:17;;;;;;;8.70;4.73;;;0.70;99.90;;;;;;5014518;28;20183;-59
2024/02/24 04:55:42;;;;;;;10.40;5.27;;;0.60;99.90;;;;;;5007309;28;20610;-60
2024/02/24 04:58:08;;;;;;;6.63;5.13;;;0.60;99.90;;;;;;5010516;28;20180;-59
2024/02/24 05:00:34;;;;;;;6.87;4.77;;;0.60;99.90;;;;;;5004533;28;20999;-59
2024/02/24 05:03:00;;;;;;;9.00;5.07;;;0.60;99.90;;;;;;5005765;28;20205;-59
2024/02/24 05:05:25;;;;;;;8.03;4.83;;;0.60;99.90;;;;;;5012495;28;20928;-59
2024/02/24 05:07:51;;;;;;;10.63;5.20;;;0.60;99.90;;;;;;5012452;28;20204;-59
2024/02/24 05:10:16;;;;;;;6.60;4.70;;;0.60;99.90;;;;;;5011676;28;20229;-59
2024/02/24 05:12:47;;;;;;;10.53;5.10;;;0.60;99.90;;;;;;5006567;28;20226;-58
2024/02/24 05:15:17;;;;;;;12.73;5.50;;;0.60;99.90;;;;;;5007012;28;20198;-59
2024/02/24 05:17:43;;;;;;;8.47;4.93;;;0.60;99.90;;;;;;5005209;28;20422;-58
2024/02/24 05:20:11;;;;;;;8.73;4.63;;;0.60;99.90;;;;;;5003112;28;21084;-60
2024/02/24 05:22:37;;;;;;;9.30;4.93;;;0.70;99.90;;;;;;5012947;28;20423;-59
2024/02/24 05:25:03;;;;;;;8.10;5.13;;;0.70;99.90;;;;;;5010148;28;20485;-59
2024/02/24 05:27:30;;;;;;;8.23;4.87;;;0.70;99.90;;;;;;5012864;28;20713;-59
2024/02/24 05:29:56;;;;;;;9.17;5.10;;;0.70;99.90;;;;;;5018264;28;20932;-59
2024/02/24 05:32:21;;;;;;;9.23;4.67;;;0.70;99.90;;;;;;5017051;28;20430;-59
2024/02/24 05:34:47;;;;;;;6.73;4.33;;;0.70;99.90;;;;;;5004818;28;20183;-59
2024/02/24 05:37:12;;;;;;;9.40;5.30;;;0.70;99.90;;;;;;5010657;28;20177;-59
2024/02/24 05:39:38;;;;;;;11.67;5.57;;;0.80;99.90;;;;;;5010378;28;20674;-55
2024/02/24 05:42:05;;;;;;;10.73;4.73;;;0.70;99.90;;;;;;5014925;28;20176;-60
2024/02/24 05:44:31;;;;;;;9.90;4.67;;;0.70;99.90;;;;;;5010868;28;20547;-58
2024/02/24 05:46:57;;;;;;;7.60;4.30;;;0.70;99.90;;;;;;5011844;28;20454;-59
2024/02/24 05:49:22;;;;;;;7.10;4.00;;;0.80;99.90;;;;;;5021050;28;20184;-59
2024/02/24 05:51:48;;;;;;;5.50;3.93;;;0.80;99.90;;;;;;5003419;28;20189;-60
2024/02/24 05:54:13;;;;;;;3.77;2.70;;;1.00;99.90;;;;;;5016715;28;20198;-59
2024/02/24 05:56:41;;;;;;;2.80;2.60;;;1.10;99.90;;;;;;5010985;28;20269;-59
2024/02/24 05:59:07;;;;;;;5.80;3.10;;;1.20;99.90;;;;;;5018500;28;20655;-60
2024/02/24 06:01:32;;;;;;;2.67;2.43;;;1.30;99.90;;;;;;5012601;28;20478;-59
2024/02/24 06:03:58;;;;;;;4.43;2.50;;;1.40;99.90;;;;;;5018814;28;20510;-59
2024/02/24 06:06:24;;;;;;;2.30;2.10;;;1.50;99.90;;;;;;5012450;28;20207;-59
2024/02/24 06:08:49;;;;;;;5.90;2.57;;;1.60;99.90;;;;;;5007694;28;20203;-59
2024/02/24 06:11:15;;;;;;;3.30;2.40;;;1.70;99.90;;;;;;5015001;28;20282;-59
2024/02/24 06:13:41;;;;;;;3.03;2.70;;;1.80;99.90;;;;;;5008782;28;20176;-59
2024/02/24 06:16:07;;;;;;;2.90;2.10;;;1.90;99.90;;;;;;5017241;28;20185;-60
2024/02/24 06:18:33;;;;;;;6.33;2.30;;;1.90;99.90;;;;;;5019688;28;20250;-60
2024/02/24 06:20:58;;;;;;;9.07;2.20;;;2.00;99.90;;;;;;5012867;28;21198;-59
2024/02/24 06:23:24;;;;;;;1.73;1.63;;;2.00;99.90;;;;;;5015104;28;20172;-59
2024/02/24 06:25:49;;;;;;;1.73;1.63;;;2.00;99.90;;;;;;5004807;28;20701;-59
2024/02/24 06:28:15;;;;;;;3.03;1.70;;;2.10;99.90;;;;;;5016085;28;20213;-60
2024/02/24 06:30:40;;;;;;;1.40;1.30;;;2.10;99.90;;;;;;5015783;28;20191;-59
2024/02/24 06:33:07;;;;;;;2.23;1.77;;;2.20;99.90;;;;;;5020299;28;20214;-59
2024/02/24 06:35:33;;;;;;;2.30;2.10;;;2.20;99.90;;;;;;5015931;28;20220;-59
2024/02/24 06:37:58;;;;;;;2.90;1.80;;;2.20;99.90;;;;;;5012237;28;20429;-59
2024/02/24 06:40:24;;;;;;;2.53;1.67;;;2.20;99.90;;;;;;5012072;28;20453;-60
2024/02/24 06:42:50;;;;;;;2.90;2.30;;;2.30;99.90;;;;;;5008737;28;20208;-59
2024/02/24 06:45:16;;;;;;;2.43;2.23;;;2.30;99.90;;;;;;5021304;28;20463;-60
2024/02/24 06:47:41;;;;;;;1.77;1.67;;;2.30;99.90;;;;;;5020397;28;20579;-60
2024/02/24 06:50:07;;;;;;;3.03;1.90;;;2.30;99.90;;;;;;5016589;28;20204;-61
2024/02/24 06:52:33;;;;;;;2.00;1.87;;;2.40;99.90;;;;;;5015003;28;20175;-59
2024/02/24 06:55:00;;;;;;;2.60;1.63;;;2.40;99.90;;;;;;5019136;28;20510;-59
2024/02/24 06:57:25;;;;;;;1.93;1.70;;;2.40;99.90;;;;;;5012674;28;20241;-59
2024/02/24 06:59:51;;;;;;;3.57;2.73;;;2.40;99.90;;;;;;5008491;28;20434;-60
2024/02/24 07:02:17;;;;;;;1.77;1.67;;;2.40;99.90;;;;;;5009296;28;20175;-59
2024/02/24 07:04:43;;;;;;;2.13;1.93;;;2.40;99.90;;;;;;5015193;28;20431;-59
2024/02/24 07:07:08;;;;;;;1.70;1.53;;;2.50;99.90;;;;;;5015873;28;20701;-59
2024/02/24 07:09:34;;;;;;;1.83;1.70;;;2.50;99.90;;;;;;5019594;28;20202;-58
2024/02/24 07:12:00;;;;;;;2.50;1.83;;;2.50;99.90;;;;;;5012449;28;20199;-59
2024/02/24 07:14:25;;;;;;;2.60;1.90;;;2.50;99.90;;;;;;5009019;28;20678;-59
2024/02/24 07:16:51;;;;;;;1.90;1.80;;;2.50;99.90;;;;;;5003688;28;20176;-60
2024/02/24 07:19:16;;;;;;;3.40;2.20;;;2.50;99.90;;;;;;5007923;28;20269;-61
2024/02/24 07:21:43;;;;;;;2.73;2.43;;;2.60;99.90;;;;;;5008365;28;20219;-59
2024/02/24 07:24:09;;;;;;;2.10;2.00;;;2.60;99.90;;;;;;5010199;28;20184;-59
2024/02/24 07:26:44;;;;;;;2.40;2.20;;;2.60;99.90;;;;;;5009823;28;20476;-59
2024/02/24 07:29:10;;;;;;;8.67;4.30;;;2.60;99.90;;;;;;5014881;28;20403;-59
2024/02/24 07:31:36;;;;;;;3.53;2.60;;;2.70;99.90;;;;;;5018002;28;20491;-59
2024/02/24 07:34:02;;;;;;;3.27;2.97;;;2.70;99.90;;;;;;5013806;28;20173;-59
2024/02/24 07:36:29;;;;;;;3.20;2.90;;;2.70;99.90;;;;;;5010056;28;20438;-58
2024/02/24 07:38:55;;;;;;;2.87;2.67;;;2.80;99.90;;;;;;5007061;28;20173;-60
2024/02/24 07:41:21;;;;;;;4.80;3.20;;;2.80;99.90;;;;;;5007687;28;20438;-59
2024/02/24 07:43:47;;;;;;;4.67;3.20;;;2.80;99.90;;;;;;5013288;28;20427;-58
2024/02/24 07:46:20;;;;;;;3.57;3.10;;;2.80;99.90;;;;;;5013328;28;20215;-58
2024/02/24 07:48:45;;;;;;;4.33;3.23;;;2.90;99.90;;;;;;5005552;28;20176;-59
2024/02/24 07:51:11;;;;;;;3.87;3.47;;;2.90;99.90;;;;;;5007452;28;21024;-58
2024/02/24 07:53:36;;;;;;;3.33;2.63;;;3.00;99.90;;;;;;5011492;28;20182;-58
2024/02/24 07:56:02;;;;;;;2.60;2.33;;;3.00;99.90;;;;;;5013369;28;20180;-59
2024/02/24 07:58:27;;;;;;;3.30;2.50;;;3.00;99.90;;;;;;5023701;28;20682;-57
2024/02/24 08:00:53;;;;;;;4.00;2.97;;;3.00;99.90;;;;;;5015676;28;20238;-57
2024/02/24 08:03:18;;;;;;;4.00;2.70;;;3.10;99.90;;;;;;5010395;28;20230;-59
2024/02/24 08:05:44;;;;;;;7.23;3.27;;;3.10;99.90;;;;;;5006214;28;20188;-57
2024/02/24 08:08:10;;;;;;;5.90;4.20;;;3.10;99.90;;;;;;4997180;28;20204;-60
2024/02/24 08:10:35;;;;;;;6.43;4.77;;;3.10;99.90;;;;;;5016774;28;20196;-59
2024/02/24 08:13:01;;;;;;;12.00;5.90;;;3.20;99.90;;;;;;5011384;28;20777;-59
2024/02/24 08:15:26;;;;;;;8.87;5.57;;;3.20;99.90;;;;;;5015567;28;20257;-59
2024/02/24 08:17:52;;;;;;;8.47;5.03;;;3.30;99.90;;;;;;5009349;28;20647;-60
2024/02/24 08:20:18;;;;;;;7.53;4.43;;;3.40;99.90;;;;;;5004462;28;20219;-59
2024/02/24 08:22:43;;;;;;;5.10;4.00;;;3.50;99.90;;;;;;5009452;28;20185;-58
2024/02/24 08:25:09;;;;;;;4.97;3.47;;;3.50;99.90;;;;;;4996881;28;20204;-59
2024/02/24 08:27:34;;;;;;;3.17;2.37;;;3.50;99.90;;;;;;5007234;28;20274;-59
2024/02/24 08:30:00;;;;;;;3.50;2.40;;;3.60;99.90;;;;;;5019705;28;20611;-58
2024/02/24 08:32:26;;;;;;;2.30;2.07;;;3.70;99.90;;;;;;5012747;28;20276;-59
2024/02/24 08:34:51;;;;;;;3.47;1.93;;;3.70;99.90;;;;;;5015234;28;20206;-58
2024/02/24 08:37:17;;;;;;;4.87;2.80;;;3.70;99.90;;;;;;5003133;28;20180;-58
2024/02/24 08:39:42;;;;;;;5.90;2.83;;;3.80;99.90;;;;;;5002803;28;20184;-59
2024/02/24 08:42:08;;;;;;;4.97;2.73;;;3.90;99.90;;;;;;5006467;28;20557;-58
2024/02/24 08:44:34;;;;;;;2.57;2.37;;;3.90;99.90;;;;;;5009024;28;20194;-59
2024/02/24 08:46:59;;;;;;;1.80;1.70;;;4.00;99.90;;;;;;5006608;28;20210;-59
2024/02/24 08:49:25;;;;;;;2.00;1.77;;;4.10;99.90;;;;;;5015791;28;20181;-60
2024/02/24 08:51:51;;;;;;;2.17;1.97;;;4.10;99.90;;;;;;5008898;28;20700;-59
2024/02/24 08:54:20;;;;;;;3.20;1.80;;;4.20;99.90;;;;;;5011770;28;20188;-59
2024/02/24 08:56:46;;;;;;;4.40;1.70;;;4.30;99.90;;;;;;5007938;28;20187;-59
2024/02/24 08:59:12;;;;;;;1.60;1.50;;;4.40;96.10;;;;;;5002004;28;20423;-59
2024/02/24 09:01:37;;;;;;;1.90;1.33;;;4.40;93.00;;;;;;5005540;28;20463;-60
2024/02/24 09:04:05;;;;;;;1.23;1.10;;;4.50;90.30;;;;;;5013335;28;20223;-59
2024/02/24 09:06:35;;;;;;;2.40;1.10;;;4.50;82.50;;;;;;5014692;28;20481;-59
2024/02/24 09:09:04;;;;;;;1.10;1.00;;;4.60;78.30;;;;;;5014071;28;20848;-59
2024/02/24 09:11:30;;;;;;;1.10;1.10;;;4.60;76.60;;;;;;5006877;28;20433;-61
2024/02/24 09:13:56;;;;;;;1.23;1.13;;;4.70;76.40;;;;;;4999569;28;20427;-60
2024/02/24 09:16:22;;;;;;;0.90;0.90;;;4.70;73.40;;;;;;4999037;28;20513;-60
2024/02/24 09:18:47;;;;;;;0.80;0.80;;;4.80;72.30;;;;;;5000837;28;20431;-59
2024/02/24 09:21:13;;;;;;;0.90;0.90;;;4.90;71.10;;;;;;5006154;28;20645;-59
2024/02/24 09:23:38;;;;;;;2.60;1.23;;;5.00;68.80;;;;;;5009740;28;20180;-59
2024/02/24 09:26:04;;;;;;;2.00;1.03;;;5.00;68.40;;;;;;5006620;28;20192;-60
2024/02/24 09:28:30;;;;;;;1.20;1.10;;;5.10;68.90;;;;;;5006507;28;20200;-59
2024/02/24 09:30:55;;;;;;;1.73;1.10;;;5.30;68.60;;;;;;5003913;28;20662;-62
2024/02/24 09:33:21;;;;;;;0.80;0.80;;;5.40;67.80;;;;;;4997334;28;20188;-59
2024/02/24 09:35:46;;;;;;;0.90;0.90;;;5.50;66.50;;;;;;4996637;28;20263;-60
2024/02/24 09:38:12;;;;;;;0.80;0.80;;;5.50;65.00;;;;;;5003287;28;20180;-58
2024/02/24 09:40:38;;;;;;;0.70;0.70;;;5.50;64.40;;;;;;5000790;28;20204;-62
2024/02/24 09:43:05;;;;;;;1.53;1.30;;;5.50;64.30;;;;;;5008466;28;20233;-59
2024/02/24 09:45:35;;;;;;;1.00;1.00;;;5.40;63.70;;;;;;5010260;28;20676;-59
2024/02/24 09:48:02;;;;;;;1.13;1.03;;;5.40;64.10;;;;;;5007207;28;20455;-60
2024/02/24 09:50:28;;;;;;;0.90;0.90;;;5.40;63.10;;;;;;5007309;28;20457;-59
2024/02/24 09:52:53;;;;;;;1.27;1.10;;;5.30;62.60;;;;;;5004636;28;20431;-57
2024/02/24 09:55:20;;;;;;;1.60;1.20;;;5.40;63.10;;;;;;5022406;28;20193;-59
2024/02/24 09:57:46;;;;;;;1.37;1.10;;;5.40;63.40;;;;;;5005713;28;20236;-59
2024/02/24 10:00:12;;;;;;;0.80;0.80;;;5.40;62.80;;;;;;5006132;28;20942;-59
2024/02/24 10:02:38;;;;;;;1.10;1.00;;;5.40;62.20;;;;;;5005807;28;20423;-59
2024/02/24 10:05:04;;;;;;;1.80;1.30;;;5.50;62.70;;;;;;5005926;28;21036;-59
2024/02/24 10:07:34;;;;;;;1.00;1.00;;;5.50;63.00;;;;;;5008974;28;20266;-59
2024/02/24 10:10:00;;;;;;;3.90;1.10;;;5.70;63.70;;;;;;5006632;28;20427;-60
2024/02/24 10:12:26;;;;;;;0.87;0.87;;;5.80;61.60;;;;;;5014964;28;20448;-59
2024/02/24 10:14:53;;;;;;;1.63;1.10;;;5.70;61.20;;;;;;5018232;28;20554;-60
2024/02/24 10:17:18;;;;;;;3.00;0.97;;;5.70;62.10;;;;;;5008041;28;20184;-58
2024/02/24 10:19:46;;;;;;;2.40;1.00;;;5.80;61.80;;;;;;5005181;28;20470;-56
2024/02/24 10:22:16;;;;;;;0.90;0.90;;;5.90;60.90;;;;;;5001346;28;20208;-59
2024/02/24 10:24:42;;;;;;;4.67;1.40;;;5.80;60.00;;;;;;5008417;28;20408;-59
2024/02/24 10:27:08;;;;;;;1.10;1.00;;;5.90;60.40;;;;;;5019427;28;20478;-59
2024/02/24 10:29:35;;;;;;;1.10;1.00;;;5.80;60.00;;;;;;5018748;28;20597;-59
2024/02/24 10:32:01;;;;;;;3.37;1.30;;;5.70;60.00;;;;;;5003372;28;20459;-59
2024/02/24 10:34:28;;;;;;;1.80;1.20;;;5.60;60.30;;;;;;5017373;28;20792;-59
2024/02/24 10:36:57;;;;;;;1.47;1.07;;;5.60;60.70;;;;;;5012084;28;20742;-59
2024/02/24 10:39:25;;;;;;;3.13;0.93;;;5.50;60.50;;;;;;5024699;28;20427;-59
2024/02/24 10:41:52;;;;;;;1.20;1.10;;;5.50;60.60;;;;;;5012487;28;20455;-58
2024/02/24 10:44:20;;;;;;;1.00;0.90;;;5.50;61.40;;;;;;5014926;28;20431;-59
2024/02/24 10:46:49;;;;;;;2.00;1.80;;;5.50;60.90;;;;;;5019880;28;20461;-58
2024/02/24 10:49:15;;;;;;;1.40;1.30;;;5.50;61.50;;;;;;5018040;28;20506;-59
2024/02/24 10:51:45;;;;;;;1.60;1.17;;;5.50;62.10;;;;;;5020734;28;20893;-59
2024/02/24 10:54:16;;;;;;;0.87;0.83;;;5.50;61.70;;;;;;5018970;28;20219;-59
2024/02/24 10:56:43;;;;;;;1.23;1.00;;;5.60;62.20;;;;;;5018687;28;20422;-59
2024/02/24 10:59:09;;;;;;;0.97;0.97;;;5.80;62.80;;;;;;5007629;28;20423;-59
2024/02/24 11:01:47;;;;;;;1.83;1.20;;;6.00;61.60;;;;;;5011209;28;20541;-58
2024/02/24 11:04:15;;;;;;;2.73;2.00;;;6.20;62.10;;;;;;5020853;28;20984;-60
2024/02/24 11:06:51;;;;;;;1.77;1.10;;;6.30;60.50;;;;;;5015090;28;20458;-61
2024/02/24 11:09:34;;;;;;;1.30;1.20;;;6.50;60.80;;;;;;5020075;28;20439;-59
2024/02/24 11:12:03;;;;;;;2.30;1.20;;;6.60;59.80;;;;;;5016667;28;20530;-60
2024/02/24 11:14:31;;;;;;;1.20;1.10;;;6.60;59.40;;;;;;5011759;28;20404;-61
2024/02/24 11:16:59;;;;;;;0.93;0.90;;;6.60;59.20;;;;;;5011149;28;20431;-60
2024/02/24 11:19:47;;;;;;;1.20;1.20;;;6.50;58.90;;;;;;5017414;28;20486;-60
2024/02/24 11:22:20;;;;;;;1.10;1.00;;;6.40;58.60;;;;;;5016957;28;20423;-60
2024/02/24 11:24:59;;;;;;;1.30;1.20;;;6.30;58.60;;;;;;5010579;28;20450;-59
2024/02/24 11:27:34;;;;;;;1.47;1.37;;;6.30;59.20;;;;;;5004844;28;20469;-59
2024/02/24 11:30:35;;;;;;;2.63;1.77;;;6.30;59.70;;;;;;5017216;28;20410;-60
2024/02/24 11:33:24;;;;;;;7.20;2.10;;;6.40;59.90;;;;;;5009224;28;21141;-60
2024/02/24 11:35:51;;;;;;;1.60;1.50;;;6.50;59.40;;;;;;5014031;28;20426;-61
2024/02/24 11:38:20;;;;;;;1.47;1.37;;;6.50;59.00;;;;;;5012727;28;21023;-60
2024/02/24 11:40:48;;;;;;;1.30;1.20;;;6.50;58.90;;;;;;5012060;28;21273;-58
2024/02/24 11:43:15;;;;;;;1.20;1.10;;;6.50;58.50;;;;;;5013101;28;20886;-59
2024/02/24 11:45:48;;;;;;;2.43;1.50;;;6.50;57.70;;;;;;5014768;28;20960;-60
2024/02/24 11:48:14;;;;;;;1.10;1.00;;;6.40;58.20;;;;;;4999525;28;20459;-60
2024/02/24 11:50:42;;;;;;;2.50;1.43;;;6.40;58.20;;;;;;5012463;28;20560;-61
2024/02/24 11:53:08;;;;;;;1.43;1.30;;;6.40;58.60;;;;;;5013897;28;20826;-60
2024/02/24 11:55:35;;;;;;;1.70;1.60;;;6.50;59.10;;;;;;5012059;28;20416;-61
2024/02/24 11:58:03;;;;;;;1.33;1.23;;;6.50;59.20;;;;;;5018841;28;20511;-60
2024/02/24 12:00:30;;;;;;;2.00;1.10;;;6.50;59.20;;;;;;5006440;28;20995;-60
2024/02/24 12:02:56;;;;;;;7.90;2.37;;;6.60;59.60;;;;;;5017118;28;20567;-60
2024/02/24 12:05:21;;;;;;;1.57;1.47;;;6.60;58.90;;;;;;5005914;28;20963;-60
2024/02/24 12:07:47;;;;;;;1.90;1.30;;;6.70;59.10;;;;;;5010043;28;20457;-60
2024/02/24 12:10:13;;;;;;;1.20;1.10;;;6.80;59.20;;;;;;5017593;28;20274;-60
2024/02/24 12:12:39;;;;;;;1.20;1.10;;;6.90;58.40;;;;;;5016982;28;20476;-60
2024/02/24 12:15:05;;;;;;;1.33;1.23;;;7.00;57.90;;;;;;5012939;28;20180;-60
2024/02/24 12:17:33;;;;;;;1.20;1.10;;;7.30;57.90;;;;;;5014458;28;20184;-60
2024/02/24 12:20:02;;;;;;;2.40;1.30;;;7.50;57.10;;;;;;5013468;28;20427;-60
2024/02/24 12:22:27;;;;;;;1.30;1.20;;;7.80;57.00;;;;;;5002278;28;20420;-60
2024/02/24 12:24:53;;;;;;;0.87;0.87;;;8.10;56.60;;;;;;5007116;28;20422;-61
2024/02/24 12:27:19;;;;;;;2.40;1.10;;;8.30;55.60;;;;;;5004395;28;20223;-60
2024/02/24 12:29:45;;;;;;;1.47;1.37;;;8.30;55.00;;;;;;5014840;28;20268;-59
2024/02/24 12:32:10;;;;;;;1.50;1.40;;;8.20;55.10;;;;;;5005647;28;20510;-61
2024/02/24 12:34:36;;;;;;;1.40;1.30;;;8.10;55.40;;;;;;5007118;28;20187;-60
2024/02/24 12:37:03;;;;;;;3.07;2.50;;;8.00;55.20;;;;;;5010263;28;20184;-60
2024/02/24 12:39:32;;;;;;;2.70;2.13;;;7.90;55.40;;;;;;5011151;28;20705;-60
2024/02/24 12:41:57;;;;;;;8.20;2.83;;;7.90;55.60;;;;;;5000152;28;20832;-57
2024/02/24 12:44:23;;;;;;;1.87;1.47;;;7.80;56.10;;;;;;5000275;28;21011;-56
2024/02/24 12:46:49;;;;;;;3.37;1.70;;;7.80;56.10;;;;;;5009945;28;20800;-59
2024/02/24 12:49:14;;;;;;;3.80;1.50;;;7.70;56.30;;;;;;5011863;28;20183;-60
2024/02/24 12:51:40;;;;;;;1.13;1.03;;;7.80;55.90;;;;;;5007972;28;20197;-60